sensor_id;sensor_type;location;lat;lon;timestamp;pressure;altitude;pressure_sealevel;temperature;humidity
59513;BME280;45330;51.634;5.562;2023-03-04T00:00:10;102556.84;;;4.18;100.00
59513;BME280;45330;51.634;5.562;2023-03-04T00:02:36;102567.53;;;4.25;100.00
59513;BME280;45330;51.634;5.562;2023-03-04T00:05:01;102574.59;;;4.29;100.00
59513;BME280;45330;51.634;5.562;2023-03-04T00:07:28;102559.34;;;4.16;100.00
59513;BME280;45330;51.634;5.562;2023-03-04T00:09:53;102579.75;;;4.29;100.00
59513;BME280;45330;51.634;5.562;2023-03-04T00:12:18;102573.81;;;4.31;100.00
59513;BME280;45330;51.634;5.562;2023-03-04T00:14:44;102579.75;;;4.29;100.00
59513;BME280;45330;51.634;5.562;2023-03-04T00:17:09;102557.75;;;4.18;100.00
59513;BME280;45330;51.634;5.562;2023-03-04T00:19:34;102575.41;;;4.28;100.00
59513;BME280;45330;51.634;5.562;2023-03-04T00:22:00;102574.47;;;4.26;100.00
59513;BME280;45330;51.634;5.562;2023-03-04T00:24:26;102561.19;;;4.19;100.00
59513;BME280;45330;51.634;5.562;2023-03-04T00:26:51;102563.13;;;4.23;100.00
59513;BME280;45330;51.634;5.562;2023-03-04T00:29:17;102569.31;;;4.26;100.00
59513;BME280;45330;51.634;5.562;2023-03-04T00:31:42;102561.44;;;4.23;100.00
59513;BME280;45330;51.634;5.562;2023-03-04T00:34:08;102566.81;;;4.28;100.00
59513;BME280;45330;51.634;5.562;2023-03-04T00:36:33;102564.03;;;4.23;100.00
59513;BME280;45330;51.634;5.562;2023-03-04T00:38:58;102571.91;;;4.26;100.00
59513;BME280;45330;51.634;5.562;2023-03-04T00:41:24;102562.59;;;4.30;100.00
59513;BME280;45330;51.634;5.562;2023-03-04T00:43:49;102574.22;;;4.40;100.00
59513;BME280;45330;51.634;5.562;2023-03-04T00:46:15;102559.22;;;4.31;100.00
59513;BME280;45330;51.634;5.562;2023-03-04T00:48:40;102545.28;;;4.27;100.00
59513;BME280;45330;51.634;5.562;2023-03-04T00:51:05;102562.16;;;4.39;100.00
59513;BME280;45330;51.634;5.562;2023-03-04T00:53:31;102569.97;;;4.40;100.00
59513;BME280;45330;51.634;5.562;2023-03-04T00:55:56;102571.72;;;4.41;100.00
59513;BME280;45330;51.634;5.562;2023-03-04T00:58:21;102569.72;;;4.36;100.00
59513;BME280;45330;51.634;5.562;2023-03-04T01:00:47;102553.84;;;4.26;100.00
59513;BME280;45330;51.634;5.562;2023-03-04T01:03:12;102567.00;;;4.33;100.00
59513;BME280;45330;51.634;5.562;2023-03-04T01:05:38;102558.16;;;4.27;100.00
59513;BME280;45330;51.634;5.562;2023-03-04T01:08:04;102575.88;;;4.38;100.00
59513;BME280;45330;51.634;5.562;2023-03-04T01:10:29;102575.78;;;4.36;100.00
59513;BME280;45330;51.634;5.562;2023-03-04T01:12:55;102551.03;;;4.22;100.00
59513;BME280;45330;51.634;5.562;2023-03-04T01:15:22;102575.88;;;4.38;100.00
59513;BME280;45330;51.634;5.562;2023-03-04T01:17:47;102535.50;;;4.20;100.00
59513;BME280;45330;51.634;5.562;2023-03-04T01:20:13;102570.72;;;4.38;100.00
59513;BME280;45330;51.634;5.562;2023-03-04T01:22:39;102575.72;;;4.35;100.00
59513;BME280;45330;51.634;5.562;2023-03-04T01:25:05;102575.78;;;4.36;100.00
59513;BME280;45330;51.634;5.562;2023-03-04T01:27:31;102566.34;;;4.37;100.00
59513;BME280;45330;51.634;5.562;2023-03-04T01:29:56;102565.56;;;4.38;100.00
59513;BME280;45330;51.634;5.562;2023-03-04T01:32:22;102549.38;;;4.22;100.00
59513;BME280;45330;51.634;5.562;2023-03-04T01:34:47;102541.69;;;4.24;100.00
59513;BME280;45330;51.634;5.562;2023-03-04T01:37:13;102565.56;;;4.38;100.00
59513;BME280;45330;51.634;5.562;2023-03-04T01:39:38;102571.50;;;4.37;100.00
59513;BME280;45330;51.634;5.562;2023-03-04T01:42:04;102563.84;;;4.38;100.00
59513;BME280;45330;51.634;5.562;2023-03-04T01:44:29;102539.19;;;4.25;100.00
59513;BME280;45330;51.634;5.562;2023-03-04T01:46:55;102551.69;;;4.36;100.00
59513;BME280;45330;51.634;5.562;2023-03-04T01:49:21;102549.19;;;4.37;100.00
59513;BME280;45330;51.634;5.562;2023-03-04T01:51:49;102513.81;;;4.15;100.00
59513;BME280;45330;51.634;5.562;2023-03-04T01:54:16;102543.09;;;4.35;100.00
59513;BME280;45330;51.634;5.562;2023-03-04T01:56:44;102519.25;;;4.21;100.00
59513;BME280;45330;51.634;5.562;2023-03-04T01:59:21;102526.25;;;4.24;100.00
59513;BME280;45330;51.634;5.562;2023-03-04T02:01:54;102536.91;;;4.32;100.00
59513;BME280;45330;51.634;5.562;2023-03-04T02:04:22;102535.09;;;4.29;100.00
59513;BME280;45330;51.634;5.562;2023-03-04T02:06:49;102530.81;;;4.29;100.00
59513;BME280;45330;51.634;5.562;2023-03-04T02:09:15;102527.56;;;4.34;100.00
59513;BME280;45330;51.634;5.562;2023-03-04T02:11:42;102533.59;;;4.34;100.00
59513;BME280;45330;51.634;5.562;2023-03-04T02:14:10;102527.41;;;4.31;100.00
59513;BME280;45330;51.634;5.562;2023-03-04T02:16:36;102495.91;;;4.18;100.00
59513;BME280;45330;51.634;5.562;2023-03-04T02:19:04;102513.69;;;4.32;100.00
59513;BME280;45330;51.634;5.562;2023-03-04T02:21:32;102517.13;;;4.31;100.00
59513;BME280;45330;51.634;5.562;2023-03-04T02:24:18;102526.81;;;4.36;100.00
59513;BME280;45330;51.634;5.562;2023-03-04T02:26:46;102505.56;;;4.22;100.00
59513;BME280;45330;51.634;5.562;2023-03-04T02:29:13;102513.69;;;4.32;100.00
59513;BME280;45330;51.634;5.562;2023-03-04T02:31:42;102514.66;;;4.34;100.00
59513;BME280;45330;51.634;5.562;2023-03-04T02:34:20;102517.03;;;4.29;100.00
59513;BME280;45330;51.634;5.562;2023-03-04T02:36:47;102486.34;;;4.16;100.00
59513;BME280;45330;51.634;5.562;2023-03-04T02:41:44;102487.28;;;4.18;100.00
59513;BME280;45330;51.634;5.562;2023-03-04T02:44:24;102508.34;;;4.27;100.00
59513;BME280;45330;51.634;5.562;2023-03-04T02:46:51;102504.66;;;4.22;100.00
59513;BME280;45330;51.634;5.562;2023-03-04T02:49:17;102488.13;;;4.17;100.00
59513;BME280;45330;51.634;5.562;2023-03-04T02:51:43;102508.41;;;4.28;100.00
59513;BME280;45330;51.634;5.562;2023-03-04T02:54:20;102474.25;;;4.15;100.00
59513;BME280;45330;51.634;5.562;2023-03-04T02:56:48;102478.63;;;4.16;100.00
59513;BME280;45330;51.634;5.562;2023-03-04T02:59:13;102481.94;;;4.13;100.00
59513;BME280;45330;51.634;5.562;2023-03-04T03:01:39;102496.94;;;4.22;100.00
59513;BME280;45330;51.634;5.562;2023-03-04T03:04:04;102477.81;;;4.17;100.00
59513;BME280;45330;51.634;5.562;2023-03-04T03:06:30;102469.63;;;4.07;100.00
59513;BME280;45330;51.634;5.562;2023-03-04T03:08:55;102490.03;;;4.21;100.00
59513;BME280;45330;51.634;5.562;2023-03-04T03:11:20;102495.13;;;4.19;100.00
59513;BME280;45330;51.634;5.562;2023-03-04T03:13:46;102488.41;;;4.23;100.00
59513;BME280;45330;51.634;5.562;2023-03-04T03:16:11;102494.34;;;4.22;100.00
59513;BME280;45330;51.634;5.562;2023-03-04T03:18:36;102482.91;;;4.15;100.00
59513;BME280;45330;51.634;5.562;2023-03-04T03:21:02;102460.97;;;4.05;100.00
59513;BME280;45330;51.634;5.562;2023-03-04T03:23:27;102478.69;;;4.17;100.00
59513;BME280;45330;51.634;5.562;2023-03-04T03:25:53;102483.78;;;4.16;100.00
59513;BME280;45330;51.634;5.562;2023-03-04T03:28:18;102479.41;;;4.15;100.00
59513;BME280;45330;51.634;5.562;2023-03-04T03:30:43;102478.56;;;4.14;100.00
59513;BME280;45330;51.634;5.562;2023-03-04T03:33:09;102478.41;;;4.11;100.00
59513;BME280;45330;51.634;5.562;2023-03-04T03:35:34;102472.41;;;4.12;100.00
59513;BME280;45330;51.634;5.562;2023-03-04T03:38:00;102482.00;;;4.15;100.00
59513;BME280;45330;51.634;5.562;2023-03-04T03:40:25;102446.13;;;4.00;100.00
59513;BME280;45330;51.634;5.562;2023-03-04T03:42:50;102475.91;;;4.12;100.00
59513;BME280;45330;51.634;5.562;2023-03-04T03:45:16;102468.09;;;4.11;100.00
59513;BME280;45330;51.634;5.562;2023-03-04T03:47:41;102472.59;;;4.15;100.00
59513;BME280;45330;51.634;5.562;2023-03-04T03:50:07;102433.00;;;3.95;100.00
59513;BME280;45330;51.634;5.562;2023-03-04T03:52:32;102450.59;;;4.04;100.00
59513;BME280;45330;51.634;5.562;2023-03-04T03:54:58;102469.13;;;4.15;100.00
59513;BME280;45330;51.634;5.562;2023-03-04T03:57:26;102470.00;;;4.15;100.00
59513;BME280;45330;51.634;5.562;2023-03-04T03:59:51;102449.94;;;4.08;100.00
59513;BME280;45330;51.634;5.562;2023-03-04T04:02:17;102468.31;;;4.16;100.00
59513;BME280;45330;51.634;5.562;2023-03-04T04:04:42;102476.19;;;4.19;100.00
59513;BME280;45330;51.634;5.562;2023-03-04T04:07:07;102465.59;;;4.12;100.00
59513;BME280;45330;51.634;5.562;2023-03-04T04:09:33;102469.41;;;4.21;100.00
59513;BME280;45330;51.634;5.562;2023-03-04T04:11:58;102449.94;;;4.08;100.00
59513;BME280;45330;51.634;5.562;2023-03-04T04:14:24;102472.72;;;4.18;100.00
59513;BME280;45330;51.634;5.562;2023-03-04T04:16:49;102478.81;;;4.20;100.00
59513;BME280;45330;51.634;5.562;2023-03-04T04:19:19;102460.31;;;4.09;100.00
59513;BME280;45330;51.634;5.562;2023-03-04T04:21:45;102478.69;;;4.17;100.00
59513;BME280;45330;51.634;5.562;2023-03-04T04:24:11;102479.47;;;4.16;100.00
59513;BME280;45330;51.634;5.562;2023-03-04T04:26:36;102480.31;;;4.15;100.00
59513;BME280;45330;51.634;5.562;2023-03-04T04:29:02;102478.47;;;4.12;100.00
59513;BME280;45330;51.634;5.562;2023-03-04T04:31:27;102464.22;;;4.01;100.00
59513;BME280;45330;51.634;5.562;2023-03-04T04:33:53;102459.00;;;4.00;100.00
59513;BME280;45330;51.634;5.562;2023-03-04T04:36:18;102451.94;;;3.95;100.00
59513;BME280;45330;51.634;5.562;2023-03-04T04:38:44;102459.00;;;4.00;100.00
59513;BME280;45330;51.634;5.562;2023-03-04T04:41:21;102487.09;;;4.13;100.00
59513;BME280;45330;51.634;5.562;2023-03-04T04:43:47;102485.31;;;4.12;100.00
59513;BME280;45330;51.634;5.562;2023-03-04T04:46:13;102459.00;;;4.00;100.00
59513;BME280;45330;51.634;5.562;2023-03-04T04:48:38;102475.84;;;4.11;100.00
59513;BME280;45330;51.634;5.562;2023-03-04T04:51:04;102484.50;;;4.13;100.00
59513;BME280;45330;51.634;5.562;2023-03-04T04:53:29;102479.94;;;4.07;100.00
59513;BME280;45330;51.634;5.562;2023-03-04T04:55:54;102466.56;;;3.97;100.00
59513;BME280;45330;51.634;5.562;2023-03-04T04:58:20;102481.78;;;4.10;100.00
59513;BME280;45330;51.634;5.562;2023-03-04T05:00:45;102469.56;;;4.06;100.00
59513;BME280;45330;51.634;5.562;2023-03-04T05:03:11;102476.63;;;4.10;100.00
59513;BME280;45330;51.634;5.562;2023-03-04T05:05:36;102485.31;;;4.12;100.00
59513;BME280;45330;51.634;5.562;2023-03-04T05:08:02;102490.47;;;4.12;100.00
59513;BME280;45330;51.634;5.562;2023-03-04T05:10:27;102486.22;;;4.12;100.00
59513;BME280;45330;51.634;5.562;2023-03-04T05:12:52;102485.16;;;4.09;100.00
59513;BME280;45330;51.634;5.562;2023-03-04T05:15:18;102460.59;;;3.98;100.00
59513;BME280;45330;51.634;5.562;2023-03-04T05:17:43;102463.16;;;3.98;100.00
59513;BME280;45330;51.634;5.562;2023-03-04T05:20:09;102481.50;;;4.04;100.00
59513;BME280;45330;51.634;5.562;2023-03-04T05:22:34;102479.66;;;4.01;100.00
59513;BME280;45330;51.634;5.562;2023-03-04T05:25:00;102470.75;;;3.94;100.00
59513;BME280;45330;51.634;5.562;2023-03-04T05:27:25;102469.00;;;3.93;100.00
59513;BME280;45330;51.634;5.562;2023-03-04T05:29:50;102484.16;;;4.05;100.00
59513;BME280;45330;51.634;5.562;2023-03-04T05:32:16;102480.69;;;4.05;100.00
59513;BME280;45330;51.634;5.562;2023-03-04T05:34:41;102483.25;;;4.05;100.00
59513;BME280;45330;51.634;5.562;2023-03-04T05:37:07;102486.66;;;4.04;100.00
59513;BME280;45330;51.634;5.562;2023-03-04T05:39:32;102476.34;;;4.04;100.00
59513;BME280;45330;51.634;5.562;2023-03-04T05:41:57;102484.03;;;4.02;100.00
59513;BME280;45330;51.634;5.562;2023-03-04T05:44:23;102467.84;;;3.87;100.00
59513;BME280;45330;51.634;5.562;2023-03-04T05:46:48;102477.22;;;3.86;100.00
59513;BME280;45330;51.634;5.562;2023-03-04T05:49:13;102494.75;;;3.93;100.00
59513;BME280;45330;51.634;5.562;2023-03-04T05:51:39;102473.78;;;3.86;100.00
59513;BME280;45330;51.634;5.562;2023-03-04T05:54:04;102472.53;;;3.77;100.00
59513;BME280;45330;51.634;5.562;2023-03-04T05:56:29;102493.59;;;3.87;100.00
59513;BME280;45330;51.634;5.562;2023-03-04T05:58:57;102493.66;;;3.88;100.00
59513;BME280;45330;51.634;5.562;2023-03-04T06:01:23;102469.00;;;3.75;100.00
59513;BME280;45330;51.634;5.562;2023-03-04T06:03:49;102482.97;;;3.81;100.00
59513;BME280;45330;51.634;5.562;2023-03-04T06:06:14;102475.78;;;3.73;100.00
59513;BME280;45330;51.634;5.562;2023-03-04T06:08:40;102500.41;;;3.86;100.00
59513;BME280;45330;51.634;5.562;2023-03-04T06:11:05;102486.59;;;3.84;100.00
59513;BME280;45330;51.634;5.562;2023-03-04T06:13:31;102499.53;;;3.86;100.00
59513;BME280;45330;51.634;5.562;2023-03-04T06:15:58;102488.19;;;3.82;100.00
59513;BME280;45330;51.634;5.562;2023-03-04T06:18:25;102470.63;;;3.73;100.00
59513;BME280;45330;51.634;5.562;2023-03-04T06:20:54;102481.00;;;3.75;100.00
59513;BME280;45330;51.634;5.562;2023-03-04T06:23:20;102494.47;;;3.87;100.00
59513;BME280;45330;51.634;5.562;2023-03-04T06:25:45;102503.13;;;3.89;100.00
59513;BME280;45330;51.634;5.562;2023-03-04T06:28:11;102488.25;;;3.84;100.00
59513;BME280;45330;51.634;5.562;2023-03-04T06:30:36;102504.03;;;3.90;100.00
59513;BME280;45330;51.634;5.562;2023-03-04T06:33:01;102509.97;;;3.89;100.00
59513;BME280;45330;51.634;5.562;2023-03-04T06:35:27;102490.84;;;3.84;100.00
59513;BME280;45330;51.634;5.562;2023-03-04T06:37:52;102508.13;;;3.86;100.00
59513;BME280;45330;51.634;5.562;2023-03-04T06:40:18;102499.28;;;3.81;100.00
59513;BME280;45330;51.634;5.562;2023-03-04T06:42:43;102511.81;;;3.91;100.00
59513;BME280;45330;51.634;5.562;2023-03-04T06:45:10;102510.13;;;3.92;100.00
59513;BME280;45330;51.634;5.562;2023-03-04T06:47:35;102504.63;;;3.84;100.00
59513;BME280;45330;51.634;5.562;2023-03-04T06:50:01;102501.38;;;3.88;100.00
59513;BME280;45330;51.634;5.562;2023-03-04T06:52:28;102504.09;;;3.91;100.00
59513;BME280;45330;51.634;5.562;2023-03-04T06:54:53;102503.06;;;3.88;100.00
59513;BME280;45330;51.634;5.562;2023-03-04T06:57:18;102484.53;;;3.77;100.00
59513;BME280;45330;51.634;5.562;2023-03-04T06:59:44;102514.47;;;3.93;100.00
59513;BME280;45330;51.634;5.562;2023-03-04T07:02:10;102503.19;;;3.91;100.00
59513;BME280;45330;51.634;5.562;2023-03-04T07:04:36;102505.13;;;3.95;100.00
59513;BME280;45330;51.634;5.562;2023-03-04T07:07:02;102515.34;;;3.93;100.00
59513;BME280;45330;51.634;5.562;2023-03-04T07:09:27;102514.75;;;3.99;100.00
59513;BME280;45330;51.634;5.562;2023-03-04T07:11:52;102511.25;;;3.97;100.00
59513;BME280;45330;51.634;5.562;2023-03-04T07:14:18;102485.88;;;3.87;100.00
59513;BME280;45330;51.634;5.562;2023-03-04T07:16:43;102493.88;;;3.93;100.00
59513;BME280;45330;51.634;5.562;2023-03-04T07:19:08;102513.22;;;4.03;100.00
59513;BME280;45330;51.634;5.562;2023-03-04T07:21:34;102518.53;;;4.06;100.00
59513;BME280;45330;51.634;5.562;2023-03-04T07:24:00;102498.38;;;3.97;100.00
59513;BME280;45330;51.634;5.562;2023-03-04T07:26:25;102491.50;;;3.98;100.00
59513;BME280;45330;51.634;5.562;2023-03-04T07:28:51;102503.78;;;4.03;100.00
59513;BME280;45330;51.634;5.562;2023-03-04T07:31:27;102518.06;;;4.15;100.00
59513;BME280;45330;51.634;5.562;2023-03-04T07:33:56;102527.63;;;4.17;100.00
59513;BME280;45330;51.634;5.562;2023-03-04T07:36:21;102517.13;;;4.12;100.00
59513;BME280;45330;51.634;5.562;2023-03-04T07:38:48;102529.63;;;4.23;100.00
59513;BME280;45330;51.634;5.562;2023-03-04T07:41:15;102530.66;;;4.26;100.00
59513;BME280;45330;51.634;5.562;2023-03-04T07:43:41;102538.81;;;4.36;100.00
59513;BME280;45330;51.634;5.562;2023-03-04T07:46:07;102538.28;;;4.43;100.00
59513;BME280;45330;51.634;5.562;2023-03-04T07:48:33;102545.50;;;4.50;100.00
59513;BME280;45330;51.634;5.562;2023-03-04T07:51:19;102542.41;;;4.57;100.00
59513;BME280;45330;51.634;5.562;2023-03-04T07:53:46;102552.19;;;4.64;100.00
59513;BME280;45330;51.634;5.562;2023-03-04T07:56:15;102551.03;;;4.77;100.00
59513;BME280;45330;51.634;5.562;2023-03-04T07:58:40;102547.31;;;4.90;100.00
59513;BME280;45330;51.634;5.562;2023-03-04T08:01:10;102550.25;;;4.98;100.00
59513;BME280;45330;51.634;5.562;2023-03-04T08:03:36;102540.06;;;5.01;100.00
59513;BME280;45330;51.634;5.562;2023-03-04T08:06:11;102546.44;;;5.09;100.00
59513;BME280;45330;51.634;5.562;2023-03-04T08:08:37;102552.03;;;5.20;100.00
59513;BME280;45330;51.634;5.562;2023-03-04T08:11:08;102535.69;;;5.20;100.00
59513;BME280;45330;51.634;5.562;2023-03-04T08:13:34;102535.69;;;5.20;100.00
59513;BME280;45330;51.634;5.562;2023-03-04T08:16:00;102551.66;;;5.30;100.00
59513;BME280;45330;51.634;5.562;2023-03-04T08:18:26;102557.75;;;5.32;100.00
59513;BME280;45330;51.634;5.562;2023-03-04T08:20:52;102542.38;;;5.36;100.00
59513;BME280;45330;51.634;5.562;2023-03-04T08:23:18;102538.66;;;5.48;100.00
59513;BME280;45330;51.634;5.562;2023-03-04T08:25:44;102545.56;;;5.71;100.00
59513;BME280;45330;51.634;5.562;2023-03-04T08:28:10;102540.53;;;5.74;100.00
59513;BME280;45330;51.634;5.562;2023-03-04T08:30:38;102547.75;;;5.81;100.00
59513;BME280;45330;51.634;5.562;2023-03-04T08:33:04;102551.13;;;5.80;100.00
59513;BME280;45330;51.634;5.562;2023-03-04T08:35:30;102551.63;;;5.92;100.00
59513;BME280;45330;51.634;5.562;2023-03-04T08:37:55;102533.63;;;5.94;100.00
59513;BME280;45330;51.634;5.562;2023-03-04T08:40:21;102540.69;;;5.98;100.00
59513;BME280;45330;51.634;5.562;2023-03-04T08:42:46;102536.94;;;5.91;100.00
59513;BME280;45330;51.634;5.562;2023-03-04T08:45:12;102557.06;;;5.98;100.00
59513;BME280;45330;51.634;5.562;2023-03-04T08:47:37;102530.59;;;5.83;100.00
59513;BME280;45330;51.634;5.562;2023-03-04T08:50:04;102551.28;;;6.04;100.00
59513;BME280;45330;51.634;5.562;2023-03-04T08:52:30;102560.88;;;6.29;100.00
59513;BME280;45330;51.634;5.562;2023-03-04T08:54:56;102560.47;;;6.41;100.00
59513;BME280;45330;51.634;5.562;2023-03-04T08:57:21;102554.53;;;6.44;100.00
59513;BME280;45330;51.634;5.562;2023-03-04T08:59:47;102559.38;;;6.57;100.00
59513;BME280;45330;51.634;5.562;2023-03-04T09:02:12;102549.41;;;6.45;100.00
59513;BME280;45330;51.634;5.562;2023-03-04T09:04:37;102534.91;;;6.26;100.00
59513;BME280;45330;51.634;5.562;2023-03-04T09:07:03;102538.31;;;6.25;100.00
59513;BME280;45330;51.634;5.562;2023-03-04T09:09:28;102553.03;;;6.49;100.00
59513;BME280;45330;51.634;5.562;2023-03-04T09:11:54;102535.63;;;6.45;100.00
59513;BME280;45330;51.634;5.562;2023-03-04T09:14:19;102543.66;;;6.52;100.00
59513;BME280;45330;51.634;5.562;2023-03-04T09:16:45;102528.50;;;6.39;100.00
59513;BME280;45330;51.634;5.562;2023-03-04T09:19:10;102529.63;;;6.46;100.00
59513;BME280;45330;51.634;5.562;2023-03-04T09:21:35;102523.16;;;6.57;100.00
59513;BME280;45330;51.634;5.562;2023-03-04T09:24:01;102534.19;;;6.76;100.00
59513;BME280;45330;51.634;5.562;2023-03-04T09:26:28;102531.34;;;6.92;100.00
59513;BME280;45330;51.634;5.562;2023-03-04T09:28:55;102519.13;;;6.88;100.00
59513;BME280;45330;51.634;5.562;2023-03-04T09:31:21;102522.72;;;6.93;100.00
59513;BME280;45330;51.634;5.562;2023-03-04T09:33:47;102534.63;;;7.12;100.00
59513;BME280;45330;51.634;5.562;2023-03-04T09:36:14;102530.03;;;7.29;100.00
59513;BME280;45330;51.634;5.562;2023-03-04T09:38:41;102525.28;;;7.42;100.00
59513;BME280;45330;51.634;5.562;2023-03-04T09:41:09;102517.06;;;7.28;100.00
59513;BME280;45330;51.634;5.562;2023-03-04T09:43:36;102506.13;;;7.11;100.00
59513;BME280;45330;51.634;5.562;2023-03-04T09:46:11;102535.66;;;7.16;100.00
59513;BME280;45330;51.634;5.562;2023-03-04T09:48:47;102529.72;;;7.20;100.00
59513;BME280;45330;51.634;5.562;2023-03-04T09:51:37;102526.47;;;7.26;100.00
59513;BME280;45330;51.634;5.562;2023-03-04T09:56:42;102523.81;;;7.24;100.00
59513;BME280;45330;51.634;5.562;2023-03-04T09:59:16;102513.47;;;7.24;100.00
59513;BME280;45330;51.634;5.562;2023-03-04T10:01:57;102527.31;;;7.50;100.00
59513;BME280;45330;51.634;5.562;2023-03-04T10:04:38;102521.59;;;7.61;100.00
59513;BME280;45330;51.634;5.562;2023-03-04T10:07:07;102528.81;;;7.69;100.00
59513;BME280;45330;51.634;5.562;2023-03-04T10:09:43;102531.00;;;7.57;100.00
59513;BME280;45330;51.634;5.562;2023-03-04T10:12:13;102526.72;;;7.59;100.00
59513;BME280;45330;51.634;5.562;2023-03-04T10:14:51;102524.47;;;7.68;100.00
59513;BME280;45330;51.634;5.562;2023-03-04T10:17:23;102518.47;;;7.69;100.00
59513;BME280;45330;51.634;5.562;2023-03-04T10:20:23;102521.22;;;7.76;100.00
59513;BME280;45330;51.634;5.562;2023-03-04T10:22:59;102515.81;;;7.68;100.00
59513;BME280;45330;51.634;5.562;2023-03-04T10:25:31;102507.47;;;7.51;100.00
59513;BME280;45330;51.634;5.562;2023-03-04T10:28:04;102514.59;;;7.32;100.00
59513;BME280;45330;51.634;5.562;2023-03-04T10:30:50;102529.91;;;7.25;100.00
59513;BME280;45330;51.634;5.562;2023-03-04T10:33:23;102517.91;;;7.02;100.00
59513;BME280;45330;51.634;5.562;2023-03-04T10:36:04;102526.91;;;7.14;100.00
59513;BME280;45330;51.634;5.562;2023-03-04T10:38:39;102531.44;;;7.19;100.00
59513;BME280;45330;51.634;5.562;2023-03-04T10:41:23;102519.50;;;7.23;100.00
59513;BME280;45330;51.634;5.562;2023-03-04T10:44:16;102518.53;;;7.21;100.00
59513;BME280;45330;51.634;5.562;2023-03-04T10:46:47;102513.38;;;7.21;100.00
59513;BME280;45330;51.634;5.562;2023-03-04T10:49:17;102505.78;;;7.51;100.00
59513;BME280;45330;51.634;5.562;2023-03-04T10:51:46;102508.53;;;7.83;100.00
59513;BME280;45330;51.634;5.562;2023-03-04T10:54:25;102499.38;;;7.95;100.00
59513;BME280;45330;51.634;5.562;2023-03-04T10:56:58;102504.72;;;7.99;100.00
59513;BME280;45330;51.634;5.562;2023-03-04T11:04:42;102483.41;;;8.10;100.00
59513;BME280;45330;51.634;5.562;2023-03-04T11:07:09;102494.44;;;8.02;100.00
59513;BME280;45330;51.634;5.562;2023-03-04T11:09:35;102499.22;;;7.90;100.00
59513;BME280;45330;51.634;5.562;2023-03-04T11:12:05;102486.69;;;7.75;100.00
59513;BME280;45330;51.634;5.562;2023-03-04T11:14:39;102486.19;;;7.87;100.00
59513;BME280;45330;51.634;5.562;2023-03-04T11:17:41;102486.38;;;8.22;100.00
59513;BME280;45330;51.634;5.562;2023-03-04T11:22:43;102458.63;;;8.19;100.00
59513;BME280;45330;51.634;5.562;2023-03-04T11:25:25;102489.34;;;8.34;100.00
59513;BME280;45330;51.634;5.562;2023-03-04T11:27:55;102476.31;;;8.31;100.00
59513;BME280;45330;51.634;5.562;2023-03-04T11:30:26;102472.94;;;8.35;100.00
59513;BME280;45330;51.634;5.562;2023-03-04T11:32:59;102457.09;;;8.55;100.00
59513;BME280;45330;51.634;5.562;2023-03-04T11:35:44;102451.03;;;8.85;100.00
59513;BME280;45330;51.634;5.562;2023-03-04T11:38:18;102453.81;;;8.92;100.00
59513;BME280;45330;51.634;5.562;2023-03-04T11:40:56;102446.34;;;9.05;100.00
59513;BME280;45330;51.634;5.562;2023-03-04T11:43:31;102456.91;;;9.13;100.00
59513;BME280;45330;51.634;5.562;2023-03-04T11:46:11;102466.75;;;8.91;100.00
59513;BME280;45330;51.634;5.562;2023-03-04T11:51:54;102458.78;;;8.53;100.00
59513;BME280;45330;51.634;5.562;2023-03-04T12:19:46;102421.59;;;8.23;100.00
59513;BME280;45330;51.634;5.562;2023-03-04T12:22:25;102395.63;;;8.22;100.00
59513;BME280;45330;51.634;5.562;2023-03-04T12:36:33;102396.38;;;9.15;100.00
59513;BME280;45330;51.634;5.562;2023-03-04T12:42:17;102392.25;;;9.23;100.00
59513;BME280;45330;51.634;5.562;2023-03-04T12:44:58;102361.31;;;8.96;100.00
59513;BME280;45330;51.634;5.562;2023-03-04T12:47:45;102379.31;;;8.90;100.00
59513;BME280;45330;51.634;5.562;2023-03-04T12:53:11;102369.13;;;8.64;100.00
59513;BME280;45330;51.634;5.562;2023-03-04T12:55:43;102380.34;;;8.63;100.00
59513;BME280;45330;51.634;5.562;2023-03-04T12:58:18;102375.84;;;8.56;100.00
59513;BME280;45330;51.634;5.562;2023-03-04T13:01:21;102374.38;;;8.35;100.00
59513;BME280;45330;51.634;5.562;2023-03-04T13:09:38;102364.16;;;7.79;100.00
59513;BME280;45330;51.634;5.562;2023-03-04T13:12:25;102369.78;;;7.66;100.00
59513;BME280;45330;51.634;5.562;2023-03-04T13:23:28;102358.13;;;6.71;100.00
59513;BME280;45330;51.634;5.562;2023-03-04T13:28:22;102350.16;;;6.66;100.00
59513;BME280;45330;51.634;5.562;2023-03-04T13:35:53;102329.91;;;6.79;100.00
59513;BME280;45330;51.634;5.562;2023-03-04T13:46:41;102333.75;;;7.73;100.00
59513;BME280;45330;51.634;5.562;2023-03-04T13:49:16;102321.03;;;7.83;100.00
59513;BME280;45330;51.634;5.562;2023-03-04T13:51:44;102327.41;;;7.94;100.00
59513;BME280;45330;51.634;5.562;2023-03-04T13:56:45;102333.75;;;8.04;100.00
59513;BME280;45330;51.634;5.562;2023-03-04T14:02:17;102335.41;;;7.71;100.00
59513;BME280;45330;51.634;5.562;2023-03-04T14:04:46;102330.63;;;7.56;100.00
59513;BME280;45330;51.634;5.562;2023-03-04T14:07:28;102319.78;;;7.41;100.00
59513;BME280;45330;51.634;5.562;2023-03-04T14:09:55;102331.00;;;7.40;100.00
59513;BME280;45330;51.634;5.562;2023-03-04T14:12:20;102329.09;;;7.34;100.00
59513;BME280;45330;51.634;5.562;2023-03-04T14:14:49;102318.19;;;7.16;100.00
59513;BME280;45330;51.634;5.562;2023-03-04T14:17:34;102327.09;;;7.26;100.00
59513;BME280;45330;51.634;5.562;2023-03-04T14:20:04;102326.91;;;7.19;100.00
59513;BME280;45330;51.634;5.562;2023-03-04T14:22:33;102318.19;;;7.16;100.00
59513;BME280;45330;51.634;5.562;2023-03-04T14:27:37;102312.34;;;7.23;100.00
59513;BME280;45330;51.634;5.562;2023-03-04T14:30:16;102308.75;;;7.18;100.00
59513;BME280;45330;51.634;5.562;2023-03-04T14:32:43;102304.56;;;7.21;100.00